Time;durP1;ratioP1;P1;durP2;ratioP2;P2;SDS_P1;SDS_P2;PMS_P1;PMS_P2;Temp;Humidity;BMP_temperature;BMP_pressure;BME280_temperature;BME280_humidity;BME280_pressure;Samples;Min_cycle;Max_cycle;Signal;HPM_P1;HPM_P2
2022/08/24 00:00:33;;;;;;;1.85;1.55;;;;;;;;;;7327509;19;153991;-15
2022/08/24 00:03:10;;;;;;;1.77;1.40;;;;;;;;;;7327461;19;153622;-18
2022/08/24 00:05:41;;;;;;;1.75;1.33;;;;;;;;;;7325200;19;161597;-15
2022/08/24 00:08:13;;;;;;;1.52;1.30;;;;;;;;;;7326944;19;162625;-15
2022/08/24 00:10:44;;;;;;;1.63;1.48;;;;;;;;;;7330109;19;154105;-16
2022/08/24 00:13:16;;;;;;;3.38;1.60;;;;;;;;;;7326089;19;153587;-17
2022/08/24 00:15:50;;;;;;;2.03;1.60;;;;;;;;;;7332268;19;161972;-17
2022/08/24 00:18:24;;;;;;;1.80;1.53;;;;;;;;;;7333695;19;162739;-14
2022/08/24 00:20:55;;;;;;;2.08;1.60;;;;;;;;;;7334102;19;154274;-15
2022/08/24 00:23:27;;;;;;;2.75;1.65;;;;;;;;;;7333954;19;154126;-14
2022/08/24 00:25:59;;;;;;;3.58;1.30;;;;;;;;;;7331790;19;161873;-15
2022/08/24 00:28:31;;;;;;;2.88;1.48;;;;;;;;;;7333378;19;162662;-14
2022/08/24 00:31:03;;;;;;;2.50;1.40;;;;;;;;;;7333632;19;154125;-14
2022/08/24 00:33:37;;;;;;;2.65;1.23;;;;;;;;;;7333515;19;153512;-15
2022/08/24 00:36:10;;;;;;;1.77;1.38;;;;;;;;;;7333144;19;161895;-15
2022/08/24 00:38:41;;;;;;;1.98;1.58;;;;;;;;;;7333181;19;162377;-14
2022/08/24 00:41:12;;;;;;;1.20;1.10;;;;;;;;;;7332310;19;154163;-15
2022/08/24 00:43:54;;;;;;;1.30;1.00;;;;;;;;;;7333306;19;153731;-15
2022/08/24 00:46:30;;;;;;;2.80;1.65;;;;;;;;;;7329706;19;161988;-15
2022/08/24 00:49:11;;;;;;;1.90;1.20;;;;;;;;;;7331714;19;162941;-14
2022/08/24 00:51:48;;;;;;;1.52;1.42;;;;;;;;;;7333206;19;154034;-14
2022/08/24 00:54:20;;;;;;;4.07;1.20;;;;;;;;;;7331062;19;153577;-15
2022/08/24 00:57:00;;;;;;;1.33;1.23;;;;;;;;;;7332697;19;162040;-15
2022/08/24 00:59:37;;;;;;;1.15;1.05;;;;;;;;;;7332624;19;162387;-15
2022/08/24 01:02:13;;;;;;;1.02;1.00;;;;;;;;;;7332989;19;154599;-15
2022/08/24 01:04:53;;;;;;;1.02;1.02;;;;;;;;;;7331565;19;153670;-14
2022/08/24 01:07:27;;;;;;;3.03;1.50;;;;;;;;;;7335211;19;162050;-14
2022/08/24 01:10:01;;;;;;;1.58;1.38;;;;;;;;;;7333692;19;162744;-15
2022/08/24 01:12:33;;;;;;;1.40;1.23;;;;;;;;;;7332662;19;154131;-15
2022/08/24 01:15:09;;;;;;;1.58;1.33;;;;;;;;;;7332484;19;153839;-14
2022/08/24 01:20:27;;;;;;;1.63;1.50;;;;;;;;;;7330820;19;162537;-14
2022/08/24 01:23:07;;;;;;;1.15;1.10;;;;;;;;;;7332526;19;154228;-15
2022/08/24 01:25:45;;;;;;;1.92;1.10;;;;;;;;;;7328931;19;153614;-14
2022/08/24 01:28:19;;;;;;;1.67;1.20;;;;;;;;;;7330118;19;161849;-14
2022/08/24 01:30:51;;;;;;;1.90;1.30;;;;;;;;;;7331692;19;162451;-14
2022/08/24 01:33:27;;;;;;;1.73;1.40;;;;;;;;;;7332210;19;154029;-15
2022/08/24 01:36:02;;;;;;;1.58;1.27;;;;;;;;;;7331978;19;153490;-15
2022/08/24 01:38:36;;;;;;;2.33;1.55;;;;;;;;;;7330315;19;162084;-15
2022/08/24 01:41:10;;;;;;;1.65;1.10;;;;;;;;;;7331551;19;162550;-15
2022/08/24 01:43:43;;;;;;;1.50;1.30;;;;;;;;;;7330551;19;154261;-14
2022/08/24 01:46:20;;;;;;;1.48;1.10;;;;;;;;;;7329377;19;153557;-14
2022/08/24 01:48:51;;;;;;;1.65;1.20;;;;;;;;;;7331503;19;161841;-14
2022/08/24 01:51:25;;;;;;;2.20;1.30;;;;;;;;;;7331107;19;162695;-15
2022/08/24 01:53:56;;;;;;;2.22;1.33;;;;;;;;;;7328346;19;154070;-14
2022/08/24 01:56:31;;;;;;;1.77;1.40;;;;;;;;;;7334777;19;153244;-14
2022/08/24 01:59:03;;;;;;;1.75;1.05;;;;;;;;;;7329893;19;162746;-15
2022/08/24 02:01:40;;;;;;;1.70;1.37;;;;;;;;;;7329728;19;162454;-14
2022/08/24 02:04:11;;;;;;;1.75;1.20;;;;;;;;;;7331015;19;154038;-15
2022/08/24 02:06:43;;;;;;;1.63;1.20;;;;;;;;;;7328418;19;153553;-15
2022/08/24 02:09:16;;;;;;;2.22;1.40;;;;;;;;;;7330724;19;161845;-14
2022/08/24 02:11:51;;;;;;;1.88;1.30;;;;;;;;;;7329520;19;162496;-14
2022/08/24 02:14:25;;;;;;;2.67;1.48;;;;;;;;;;7330968;19;154335;-15
2022/08/24 02:16:56;;;;;;;1.58;1.40;;;;;;;;;;7329549;19;153693;-15
2022/08/24 02:19:29;;;;;;;1.90;1.40;;;;;;;;;;7330221;19;161991;-15
2022/08/24 02:22:02;;;;;;;1.48;1.38;;;;;;;;;;7330390;19;162628;-14
2022/08/24 02:24:33;;;;;;;1.83;1.20;;;;;;;;;;7329371;19;154131;-15
2022/08/24 02:27:07;;;;;;;1.75;1.30;;;;;;;;;;7328708;19;153529;-14
2022/08/24 02:29:42;;;;;;;2.03;1.30;;;;;;;;;;7329997;19;162137;-15
2022/08/24 02:32:14;;;;;;;1.17;0.90;;;;;;;;;;7328316;19;162597;-15
2022/08/24 02:34:45;;;;;;;1.15;1.10;;;;;;;;;;7330208;19;154043;-14
2022/08/24 02:37:16;;;;;;;2.53;1.40;;;;;;;;;;7328610;19;153457;-15
2022/08/24 02:39:51;;;;;;;1.23;1.10;;;;;;;;;;7330569;19;162434;-15
2022/08/24 02:42:30;;;;;;;1.08;1.08;;;;;;;;;;7328535;19;162627;-14
2022/08/24 02:45:02;;;;;;;1.80;1.08;;;;;;;;;;7329957;19;154023;-15
2022/08/24 02:47:35;;;;;;;1.20;1.10;;;;;;;;;;7326814;19;153547;-15
2022/08/24 02:50:13;;;;;;;1.25;1.20;;;;;;;;;;7328370;19;161951;-14
2022/08/24 02:52:48;;;;;;;1.33;1.25;;;;;;;;;;7327827;19;162446;-15
2022/08/24 02:55:20;;;;;;;1.03;0.97;;;;;;;;;;7328954;19;154059;-14
2022/08/24 02:57:57;;;;;;;2.53;1.42;;;;;;;;;;7328290;19;153663;-15
2022/08/24 03:00:28;;;;;;;2.65;1.42;;;;;;;;;;7328962;19;161805;-15
2022/08/24 03:03:00;;;;;;;2.27;1.13;;;;;;;;;;7328065;19;162639;-15
2022/08/24 03:05:31;;;;;;;2.03;1.13;;;;;;;;;;7328379;19;154341;-14
2022/08/24 03:08:03;;;;;;;2.00;1.23;;;;;;;;;;7326071;19;154114;-15
2022/08/24 03:10:39;;;;;;;1.30;1.20;;;;;;;;;;7331285;19;161886;-15
2022/08/24 03:13:13;;;;;;;4.15;1.73;;;;;;;;;;7331813;19;162392;-14
2022/08/24 03:15:45;;;;;;;2.05;1.17;;;;;;;;;;7328058;19;154025;-15
2022/08/24 03:18:16;;;;;;;1.33;1.10;;;;;;;;;;7327759;19;153580;-15
2022/08/24 03:20:50;;;;;;;1.10;1.00;;;;;;;;;;7327476;19;162003;-15
2022/08/24 03:23:22;;;;;;;1.52;1.27;;;;;;;;;;7328389;19;162654;-14
2022/08/24 03:25:53;;;;;;;2.30;1.52;;;;;;;;;;7327645;19;154233;-15
2022/08/24 03:28:27;;;;;;;1.58;1.23;;;;;;;;;;7324936;19;153716;-15
2022/08/24 03:30:59;;;;;;;1.45;1.20;;;;;;;;;;7326995;19;162169;-15
2022/08/24 03:33:30;;;;;;;1.25;1.15;;;;;;;;;;7326893;19;162578;-15
2022/08/24 03:36:05;;;;;;;2.22;1.35;;;;;;;;;;7327541;19;154100;-15
2022/08/24 03:38:38;;;;;;;1.17;0.93;;;;;;;;;;7327020;19;153654;-14
2022/08/24 03:41:10;;;;;;;2.80;1.33;;;;;;;;;;7327875;19;162049;-15
2022/08/24 03:43:47;;;;;;;1.98;1.30;;;;;;;;;;7327704;19;162583;-15
2022/08/24 03:46:25;;;;;;;2.20;1.50;;;;;;;;;;7330343;19;154019;-15
2022/08/24 03:48:57;;;;;;;1.88;1.45;;;;;;;;;;7325759;19;153500;-15
2022/08/24 03:51:32;;;;;;;1.35;1.10;;;;;;;;;;7334795;19;162123;-14
2022/08/24 03:54:03;;;;;;;1.38;1.17;;;;;;;;;;7333053;19;162510;-15
2022/08/24 03:56:37;;;;;;;2.78;1.48;;;;;;;;;;7335049;19;154063;-15
2022/08/24 03:59:14;;;;;;;2.30;1.20;;;;;;;;;;7333653;19;153519;-15
2022/08/24 04:01:54;;;;;;;1.52;1.40;;;;;;;;;;7333242;19;161885;-14
2022/08/24 04:04:29;;;;;;;2.72;1.30;;;;;;;;;;7333316;19;162580;-15
2022/08/24 04:07:03;;;;;;;1.40;0.90;;;;;;;;;;7333354;19;154119;-14
2022/08/24 04:09:37;;;;;;;2.40;1.55;;;;;;;;;;7335345;19;153827;-15
2022/08/24 04:12:09;;;;;;;2.88;1.40;;;;;;;;;;7332951;19;162805;-15
2022/08/24 04:14:43;;;;;;;1.52;1.40;;;;;;;;;;7332900;19;162489;-15
2022/08/24 04:17:18;;;;;;;2.03;1.35;;;;;;;;;;7333195;19;153930;-15
2022/08/24 04:20:01;;;;;;;1.13;1.08;;;;;;;;;;7333066;19;153509;-15
2022/08/24 04:22:37;;;;;;;1.15;1.05;;;;;;;;;;7332707;19;162030;-15
2022/08/24 04:25:10;;;;;;;2.88;1.27;;;;;;;;;;7332436;19;162799;-15
2022/08/24 04:27:42;;;;;;;1.83;1.20;;;;;;;;;;7333483;19;154347;-15
2022/08/24 04:30:17;;;;;;;1.57;1.27;;;;;;;;;;7332786;19;153563;-15
2022/08/24 04:33:05;;;;;;;2.15;1.50;;;;;;;;;;7332333;19;161885;-15
2022/08/24 04:35:40;;;;;;;1.67;1.40;;;;;;;;;;7332286;19;162398;-15
2022/08/24 04:38:14;;;;;;;1.63;1.40;;;;;;;;;;7332734;19;154066;-15
2022/08/24 04:40:53;;;;;;;1.10;1.00;;;;;;;;;;7336851;19;153503;-15
2022/08/24 04:43:25;;;;;;;2.33;1.20;;;;;;;;;;7332269;19;162040;-16
2022/08/24 04:45:59;;;;;;;2.47;1.25;;;;;;;;;;7332057;19;162612;-15
2022/08/24 04:48:33;;;;;;;3.08;1.40;;;;;;;;;;7331080;19;154080;-15
2022/08/24 04:51:05;;;;;;;1.35;1.20;;;;;;;;;;7332103;19;153522;-15
2022/08/24 04:53:42;;;;;;;1.83;1.40;;;;;;;;;;7329534;19;162367;-15
2022/08/24 04:56:17;;;;;;;2.25;1.50;;;;;;;;;;7329368;19;162571;-15
2022/08/24 04:58:53;;;;;;;2.38;1.48;;;;;;;;;;7329665;19;154385;-15
2022/08/24 05:01:31;;;;;;;2.35;1.10;;;;;;;;;;7329369;19;153680;-15
2022/08/24 05:04:05;;;;;;;2.33;1.50;;;;;;;;;;7329063;19;161967;-15
2022/08/24 05:06:36;;;;;;;1.73;1.30;;;;;;;;;;7328984;19;162274;-15
2022/08/24 05:09:07;;;;;;;1.67;1.17;;;;;;;;;;7328711;19;154085;-15
2022/08/24 05:11:41;;;;;;;1.17;1.08;;;;;;;;;;7332389;19;153667;-15
2022/08/24 05:14:14;;;;;;;1.33;1.17;;;;;;;;;;7328628;19;161858;-15
2022/08/24 05:16:47;;;;;;;5.32;1.50;;;;;;;;;;7329676;19;162573;-15
2022/08/24 05:19:19;;;;;;;1.55;1.33;;;;;;;;;;7328945;19;154184;-15
2022/08/24 05:21:50;;;;;;;1.55;1.40;;;;;;;;;;7328804;19;153833;-16
2022/08/24 05:24:22;;;;;;;1.33;1.05;;;;;;;;;;7328163;19;161913;-15
2022/08/24 05:26:53;;;;;;;1.95;1.40;;;;;;;;;;7328166;19;162409;-15
2022/08/24 05:29:24;;;;;;;2.47;1.40;;;;;;;;;;7327115;19;154202;-15
2022/08/24 05:31:58;;;;;;;2.72;1.50;;;;;;;;;;7328459;19;153719;-16
2022/08/24 05:34:29;;;;;;;1.75;1.40;;;;;;;;;;7329040;19;161976;-15
2022/08/24 05:37:00;;;;;;;3.00;1.95;;;;;;;;;;7327860;19;162555;-15
2022/08/24 05:39:40;;;;;;;2.45;1.40;;;;;;;;;;7332350;19;154110;-15
2022/08/24 05:42:12;;;;;;;1.60;1.48;;;;;;;;;;7329449;19;153512;-15
2022/08/24 05:44:52;;;;;;;1.33;1.20;;;;;;;;;;7327702;19;161894;-15
2022/08/24 05:47:27;;;;;;;2.03;1.30;;;;;;;;;;7327810;19;162358;-15
2022/08/24 05:50:04;;;;;;;1.63;1.40;;;;;;;;;;7326082;19;154057;-15
2022/08/24 05:52:46;;;;;;;;;;;;;;;;;;;;;
2022/08/24 05:55:23;;;;;;;2.40;1.40;;;;;;;;;;7368728;19;132699;-15
2022/08/24 05:57:55;;;;;;;2.33;1.52;;;;;;;;;;7365012;19;153709;-15
2022/08/24 06:00:27;;;;;;;;;;;;;;;;;;7363925;19;162045;-15
2022/08/24 06:02:59;;;;;;;2.42;1.58;;;;;;;;;;7364740;19;162748;-16
2022/08/24 06:05:30;;;;;;;2.03;1.45;;;;;;;;;;7363741;19;153885;-15
2022/08/24 06:08:04;;;;;;;2.40;1.75;;;;;;;;;;7363587;19;153643;-15
2022/08/24 06:10:41;;;;;;;3.03;1.40;;;;;;;;;;7368211;19;161932;-15
2022/08/24 06:13:13;;;;;;;2.97;1.40;;;;;;;;;;7362724;19;162586;-16
2022/08/24 06:15:45;;;;;;;2.40;1.37;;;;;;;;;;7363478;19;154725;-15
2022/08/24 06:18:25;;;;;;;2.58;1.55;;;;;;;;;;7363257;19;153522;-16
2022/08/24 06:20:57;;;;;;;3.10;1.50;;;;;;;;;;7363076;19;161956;-15
2022/08/24 06:23:28;;;;;;;2.30;1.30;;;;;;;;;;7363954;19;162346;-15
2022/08/24 06:28:52;;;;;;;1.92;1.60;;;;;;;;;;7362913;19;153620;-16
2022/08/24 06:31:25;;;;;;;2.28;1.33;;;;;;;;;;7362544;19;161866;-15
2022/08/24 06:33:57;;;;;;;3.50;1.50;;;;;;;;;;7361627;19;162243;-15
2022/08/24 06:36:28;;;;;;;5.00;2.33;;;;;;;;;;7362781;19;154180;-16
2022/08/24 06:39:00;;;;;;;3.03;1.40;;;;;;;;;;7364535;19;153576;-16
2022/08/24 06:41:34;;;;;;;3.58;1.58;;;;;;;;;;7362242;19;162195;-16
2022/08/24 06:44:11;;;;;;;1.77;1.63;;;;;;;;;;7362041;19;162632;-15
2022/08/24 06:46:51;;;;;;;2.45;1.67;;;;;;;;;;7362238;19;154619;-15
2022/08/24 06:49:23;;;;;;;2.40;1.80;;;;;;;;;;7362129;19;153603;-15
2022/08/24 06:51:56;;;;;;;2.47;1.60;;;;;;;;;;7362859;19;161887;-15
2022/08/24 06:54:27;;;;;;;3.88;1.70;;;;;;;;;;7359640;19;162453;-16
2022/08/24 06:57:01;;;;;;;3.50;1.88;;;;;;;;;;7362001;19;153904;-16
2022/08/24 06:59:33;;;;;;;5.05;2.00;;;;;;;;;;7362074;19;153981;-16
2022/08/24 07:02:04;;;;;;;4.00;1.58;;;;;;;;;;7365557;19;162239;-16
2022/08/24 07:04:39;;;;;;;3.33;1.98;;;;;;;;;;7358275;19;162484;-16
2022/08/24 07:07:29;;;;;;;4.68;1.88;;;;;;;;;;7334240;19;154013;-15
2022/08/24 07:10:02;;;;;;;4.47;1.75;;;;;;;;;;7335673;19;153549;-16
2022/08/24 07:12:36;;;;;;;3.50;1.65;;;;;;;;;;7332569;19;162031;-15
2022/08/24 07:15:11;;;;;;;4.07;1.88;;;;;;;;;;7332106;19;162408;-15
2022/08/24 07:17:42;;;;;;;2.85;1.80;;;;;;;;;;7332913;19;153967;-15
2022/08/24 07:20:15;;;;;;;5.22;1.80;;;;;;;;;;7333659;19;153558;-15
2022/08/24 07:23:06;;;;;;;2.65;2.05;;;;;;;;;;7332908;19;161659;-15
2022/08/24 07:25:39;;;;;;;3.00;1.80;;;;;;;;;;7332008;19;162689;-16
2022/08/24 07:28:14;;;;;;;4.05;2.00;;;;;;;;;;7332566;19;154399;-15
2022/08/24 07:30:47;;;;;;;3.42;1.85;;;;;;;;;;7334114;19;153583;-15
2022/08/24 07:33:19;;;;;;;4.03;1.90;;;;;;;;;;7331824;19;161876;-15
2022/08/24 07:35:50;;;;;;;3.40;1.97;;;;;;;;;;7330981;19;162323;-15
2022/08/24 07:38:21;;;;;;;2.22;2.03;;;;;;;;;;7332196;19;154248;-15
2022/08/24 07:40:53;;;;;;;2.20;1.70;;;;;;;;;;7336381;19;153640;-15
2022/08/24 07:43:47;;;;;;;2.50;2.10;;;;;;;;;;7332084;19;161806;-15
2022/08/24 07:46:18;;;;;;;4.25;1.90;;;;;;;;;;7332016;19;162430;-15
2022/08/24 07:48:50;;;;;;;3.10;2.22;;;;;;;;;;7332496;19;153944;-15
2022/08/24 07:51:26;;;;;;;;;;;;;;;;;;7332950;19;153528;-15
2022/08/24 07:53:57;;;;;;;2.47;2.20;;;;;;;;;;7330451;19;161981;-15
2022/08/24 07:56:33;;;;;;;2.95;2.03;;;;;;;;;;7329203;19;162762;-14
2022/08/24 07:59:08;;;;;;;3.92;2.20;;;;;;;;;;7331991;19;154177;-15
2022/08/24 08:01:43;;;;;;;4.32;2.10;;;;;;;;;;7331799;19;153547;-15
2022/08/24 08:04:20;;;;;;;3.22;2.30;;;;;;;;;;7332673;19;162156;-15
2022/08/24 08:06:55;;;;;;;4.40;2.38;;;;;;;;;;7331189;19;162390;-15
2022/08/24 08:09:48;;;;;;;4.03;2.40;;;;;;;;;;7333869;19;153918;-15
2022/08/24 08:12:23;;;;;;;3.70;2.40;;;;;;;;;;7331706;19;153787;-16
2022/08/24 08:15:01;;;;;;;3.65;2.17;;;;;;;;;;7330215;19;161897;-16
2022/08/24 08:17:32;;;;;;;4.97;2.00;;;;;;;;;;7328459;19;162490;-15
2022/08/24 08:20:06;;;;;;;2.93;2.20;;;;;;;;;;7331417;19;153967;-15
2022/08/24 08:25:56;;;;;;;5.15;2.58;;;;;;;;;;7331091;19;161857;-15
2022/08/24 08:28:41;;;;;;;3.13;2.35;;;;;;;;;;7330949;19;162596;-14
2022/08/24 08:31:15;;;;;;;4.82;2.78;;;;;;;;;;7331423;19;154149;-15
2022/08/24 08:33:46;;;;;;;5.10;2.47;;;;;;;;;;7331064;19;153495;-15
2022/08/24 08:36:20;;;;;;;4.40;2.60;;;;;;;;;;7328805;19;162656;-15
2022/08/24 08:38:54;;;;;;;4.80;2.45;;;;;;;;;;7330977;19;162611;-16
2022/08/24 08:41:59;;;;;;;5.63;3.08;;;;;;;;;;7331068;19;154025;-15
2022/08/24 08:44:44;;;;;;;2.35;2.10;;;;;;;;;;7329103;19;153553;-15
2022/08/24 08:47:36;;;;;;;5.50;2.40;;;;;;;;;;7331537;19;161864;-16
2022/08/24 08:50:14;;;;;;;4.68;2.45;;;;;;;;;;7330281;19;162456;-15
2022/08/24 08:53:21;;;;;;;3.58;2.47;;;;;;;;;;7330602;19;153967;-15
2022/08/24 08:56:04;;;;;;;5.13;2.53;;;;;;;;;;7328285;19;153652;-15
2022/08/24 08:59:00;;;;;;;7.15;2.90;;;;;;;;;;7330838;19;161786;-15
2022/08/24 09:02:03;;;;;;;5.60;2.60;;;;;;;;;;7330674;19;162667;-15
2022/08/24 09:05:03;;;;;;;5.22;2.83;;;;;;;;;;7330320;19;154068;-15
2022/08/24 09:07:46;;;;;;;8.10;3.33;;;;;;;;;;7330430;19;153624;-15
2022/08/24 09:10:32;;;;;;;4.88;2.40;;;;;;;;;;7332227;19;161925;-15
2022/08/24 09:13:16;;;;;;;4.65;2.67;;;;;;;;;;7329452;19;162416;-15
2022/08/24 09:16:05;;;;;;;4.07;2.50;;;;;;;;;;7328758;19;153960;-15
2022/08/24 09:18:55;;;;;;;5.18;2.75;;;;;;;;;;7329555;19;153599;-14
2022/08/24 09:21:48;;;;;;;6.65;2.83;;;;;;;;;;7329218;19;162058;-15
2022/08/24 09:24:33;;;;;;;7.00;2.90;;;;;;;;;;7331328;19;162357;-14
2022/08/24 09:27:21;;;;;;;5.53;2.85;;;;;;;;;;7329298;19;155234;-14
2022/08/24 09:30:07;;;;;;;6.10;3.15;;;;;;;;;;7328284;19;153711;-15
2022/08/24 09:32:59;;;;;;;3.83;2.55;;;;;;;;;;7329880;19;162042;-15
2022/08/24 09:35:37;;;;;;;6.97;2.70;;;;;;;;;;7329546;19;162458;-16
2022/08/24 09:38:25;;;;;;;8.07;3.15;;;;;;;;;;7330167;19;153945;-16
2022/08/24 09:41:17;;;;;;;9.23;2.78;;;;;;;;;;7334439;19;153725;-16
2022/08/24 09:44:20;;;;;;;7.40;3.00;;;;;;;;;;7329340;19;161877;-16
2022/08/24 09:47:23;;;;;;;7.47;2.67;;;;;;;;;;7328902;19;162493;-16
2022/08/24 09:50:18;;;;;;;8.18;3.33;;;;;;;;;;7329809;19;153983;-16
2022/08/24 09:53:17;;;;;;;3.92;2.63;;;;;;;;;;7329529;19;153585;-16
2022/08/24 09:56:01;;;;;;;5.05;2.63;;;;;;;;;;7328461;19;161932;-16
2022/08/24 09:58:46;;;;;;;6.75;3.33;;;;;;;;;;7327835;19;162654;-16
2022/08/24 10:01:29;;;;;;;6.40;2.70;;;;;;;;;;7329207;19;154321;-16
2022/08/24 10:04:22;;;;;;;7.57;3.70;;;;;;;;;;7328029;19;153505;-16
2022/08/24 10:07:07;;;;;;;4.78;2.67;;;;;;;;;;7328909;19;162006;-16
2022/08/24 10:09:54;;;;;;;5.47;2.90;;;;;;;;;;7330596;19;162435;-16
2022/08/24 10:12:41;;;;;;;9.63;3.70;;;;;;;;;;7328875;19;154089;-16
2022/08/24 10:15:18;;;;;;;6.97;2.75;;;;;;;;;;7329009;19;153658;-16
2022/08/24 10:18:10;;;;;;;6.05;2.97;;;;;;;;;;7326102;19;161794;-16
2022/08/24 10:21:08;;;;;;;4.88;3.15;;;;;;;;;;7328356;19;162674;-14
2022/08/24 10:24:00;;;;;;;9.73;2.80;;;;;;;;;;7328420;19;154040;-14
2022/08/24 10:26:45;;;;;;;3.78;2.45;;;;;;;;;;7327937;19;153597;-13
2022/08/24 10:29:31;;;;;;;8.13;2.58;;;;;;;;;;7327281;19;161739;-14
2022/08/24 10:32:17;;;;;;;6.15;3.58;;;;;;;;;;7327733;19;162437;-14
2022/08/24 10:35:01;;;;;;;8.35;2.72;;;;;;;;;;7328381;19;154022;-13
2022/08/24 10:37:50;;;;;;;5.25;2.90;;;;;;;;;;7326168;19;153598;-14
2022/08/24 10:40:36;;;;;;;6.32;3.65;;;;;;;;;;7332422;19;161982;-14
2022/08/24 10:43:37;;;;;;;7.85;2.88;;;;;;;;;;7334028;19;162490;-13
2022/08/24 10:46:38;;;;;;;5.35;2.95;;;;;;;;;;7334609;19;154000;-14
2022/08/24 10:49:33;;;;;;;7.80;2.85;;;;;;;;;;7334613;19;153635;-14
2022/08/24 10:52:45;;;;;;;7.38;2.75;;;;;;;;;;7334071;19;161820;-14
2022/08/24 10:55:21;;;;;;;7.13;3.17;;;;;;;;;;7331329;19;162447;-14
2022/08/24 10:58:08;;;;;;;12.27;3.50;;;;;;;;;;7332808;19;153994;-14
2022/08/24 11:00:43;;;;;;;6.80;2.90;;;;;;;;;;7334459;19;153575;-14
2022/08/24 11:03:20;;;;;;;11.15;3.38;;;;;;;;;;7333528;19;162142;-14
2022/08/24 11:05:53;;;;;;;8.38;3.20;;;;;;;;;;7333720;19;162700;-14
2022/08/24 11:08:27;;;;;;;6.55;2.90;;;;;;;;;;7334125;19;154222;-14
2022/08/24 11:11:11;;;;;;;5.55;3.08;;;;;;;;;;7338398;19;153623;-14
2022/08/24 11:13:57;;;;;;;8.50;3.20;;;;;;;;;;7337731;19;162156;-14
2022/08/24 11:16:32;;;;;;;;;;;;;;;;;;7333880;19;162655;-15
2022/08/24 11:19:08;;;;;;;8.88;3.30;;;;;;;;;;7334156;19;154169;-17
2022/08/24 11:21:44;;;;;;;5.88;3.17;;;;;;;;;;7333883;19;153498;-16
2022/08/24 11:24:34;;;;;;;7.85;3.42;;;;;;;;;;7333289;19;162117;-17
2022/08/24 11:27:09;;;;;;;6.68;3.53;;;;;;;;;;7332252;19;162391;-16
2022/08/24 11:29:58;;;;;;;5.97;3.30;;;;;;;;;;7333616;19;154051;-16
2022/08/24 11:32:42;;;;;;;10.60;3.67;;;;;;;;;;7335337;19;154254;-16
2022/08/24 11:35:25;;;;;;;7.32;3.70;;;;;;;;;;7332759;19;161759;-15
2022/08/24 11:37:58;;;;;;;5.43;3.10;;;;;;;;;;7331269;19;162492;-15
2022/08/24 11:40:32;;;;;;;8.70;3.58;;;;;;;;;;7336973;19;153930;-15
2022/08/24 11:43:18;;;;;;;6.30;2.97;;;;;;;;;;7333300;19;153673;-15
2022/08/24 11:46:04;;;;;;;6.28;3.25;;;;;;;;;;7332635;19;161858;-15
2022/08/24 11:48:49;;;;;;;7.43;3.85;;;;;;;;;;7332693;19;162549;-14
2022/08/24 11:51:32;;;;;;;8.43;3.30;;;;;;;;;;7332699;19;154479;-15
2022/08/24 11:54:23;;;;;;;8.88;3.38;;;;;;;;;;7331635;19;153590;-15
2022/08/24 11:57:07;;;;;;;6.32;3.05;;;;;;;;;;7331011;19;161931;-14
2022/08/24 11:59:48;;;;;;;4.50;3.17;;;;;;;;;;7331047;19;162496;-15
2022/08/24 12:02:27;;;;;;;7.95;3.90;;;;;;;;;;7332562;19;154037;-15
2022/08/24 12:05:08;;;;;;;7.65;3.38;;;;;;;;;;7332364;19;153570;-15
2022/08/24 12:07:51;;;;;;;9.88;3.25;;;;;;;;;;7332024;19;161807;-16
2022/08/24 12:10:32;;;;;;;5.03;3.10;;;;;;;;;;7335188;19;162470;-15
2022/08/24 12:13:11;;;;;;;7.60;3.33;;;;;;;;;;7331922;19;154109;-15
2022/08/24 12:15:48;;;;;;;6.45;3.22;;;;;;;;;;7332101;19;153559;-16
2022/08/24 12:18:29;;;;;;;7.43;4.00;;;;;;;;;;7330206;19;161942;-16
2022/08/24 12:21:05;;;;;;;7.03;3.47;;;;;;;;;;7331567;19;162593;-15
2022/08/24 12:23:43;;;;;;;7.63;3.63;;;;;;;;;;7332153;19;154054;-15
2022/08/24 12:26:21;;;;;;;9.05;3.55;;;;;;;;;;7332032;19;153557;-15
2022/08/24 12:28:55;;;;;;;8.55;3.85;;;;;;;;;;7331693;19;162206;-15
2022/08/24 12:31:38;;;;;;;6.70;3.35;;;;;;;;;;7331518;19;163072;-16
2022/08/24 12:34:16;;;;;;;7.20;3.35;;;;;;;;;;7331812;19;154075;-15
2022/08/24 12:36:59;;;;;;;5.35;3.33;;;;;;;;;;7331618;19;153527;-15
2022/08/24 12:39:43;;;;;;;7.55;3.65;;;;;;;;;;7330509;19;161821;-16
2022/08/24 12:42:25;;;;;;;5.88;3.22;;;;;;;;;;7331335;19;162539;-16
2022/08/24 12:45:01;;;;;;;7.57;3.47;;;;;;;;;;7331509;19;154072;-15
2022/08/24 12:47:38;;;;;;;6.35;3.35;;;;;;;;;;7331276;19;153496;-15
2022/08/24 12:50:14;;;;;;;5.40;3.00;;;;;;;;;;7330939;19;161888;-15
2022/08/24 12:53:21;;;;;;;5.22;3.50;;;;;;;;;;7330858;19;162359;-15
2022/08/24 12:56:07;;;;;;;7.03;3.50;;;;;;;;;;7331153;19;154001;-15
2022/08/24 12:58:54;;;;;;;5.53;3.20;;;;;;;;;;7328380;19;154057;-15
2022/08/24 13:01:32;;;;;;;6.53;3.35;;;;;;;;;;7330596;19;162112;-15
2022/08/24 13:04:15;;;;;;;7.43;3.33;;;;;;;;;;7328920;19;162362;-15
2022/08/24 13:06:51;;;;;;;7.40;3.80;;;;;;;;;;7329546;19;154038;-15
2022/08/24 13:09:34;;;;;;;4.00;3.55;;;;;;;;;;7332013;19;153667;-15
2022/08/24 13:12:35;;;;;;;11.18;3.60;;;;;;;;;;7334239;19;163181;-16
2022/08/24 13:15:36;;;;;;;4.82;3.45;;;;;;;;;;7328949;19;162456;-15
2022/08/24 13:18:46;;;;;;;6.22;3.28;;;;;;;;;;7328804;19;154181;-16
2022/08/24 13:21:33;;;;;;;9.02;3.80;;;;;;;;;;7330198;19;153719;-15
2022/08/24 13:24:50;;;;;;;6.82;3.10;;;;;;;;;;7329474;19;161692;-15
2022/08/24 13:28:02;;;;;;;9.10;3.80;;;;;;;;;;7328663;19;162651;-16
2022/08/24 13:31:05;;;;;;;7.18;3.85;;;;;;;;;;7327601;19;154158;-16
2022/08/24 13:33:41;;;;;;;4.95;3.10;;;;;;;;;;7328976;19;153753;-16
2022/08/24 13:36:48;;;;;;;8.65;3.70;;;;;;;;;;7333769;19;162012;-15
2022/08/24 13:39:51;;;;;;;4.18;3.05;;;;;;;;;;7329552;19;162508;-16
2022/08/24 13:42:40;;;;;;;7.03;3.25;;;;;;;;;;7330156;19;153986;-16
2022/08/24 13:45:36;;;;;;;5.55;2.97;;;;;;;;;;7328814;19;153891;-15
2022/08/24 13:48:29;;;;;;;4.35;3.28;;;;;;;;;;7329635;19;162078;-16
2022/08/24 13:51:20;;;;;;;6.32;3.50;;;;;;;;;;7329418;19;162170;-15
2022/08/24 13:54:04;;;;;;;7.40;3.17;;;;;;;;;;7328708;19;154050;-16
2022/08/24 13:57:04;;;;;;;5.55;3.40;;;;;;;;;;7329600;19;153567;-15
2022/08/24 14:00:03;;;;;;;4.75;3.22;;;;;;;;;;7327559;19;162230;-15
2022/08/24 14:02:53;;;;;;;5.85;3.63;;;;;;;;;;7327460;19;164587;-16
2022/08/24 14:05:34;;;;;;;4.90;3.40;;;;;;;;;;7328434;19;154021;-15
2022/08/24 14:08:23;;;;;;;5.63;3.33;;;;;;;;;;7329409;19;153785;-16
2022/08/24 14:11:03;;;;;;;4.00;3.30;;;;;;;;;;7333540;19;162055;-16
2022/08/24 14:13:50;;;;;;;4.45;3.40;;;;;;;;;;7328852;19;162381;-15
2022/08/24 14:19:40;;;;;;;6.63;3.40;;;;;;;;;;7334599;19;154257;-15
2022/08/24 14:22:29;;;;;;;5.28;3.67;;;;;;;;;;7335294;19;161802;-15
2022/08/24 14:25:15;;;;;;;7.35;3.42;;;;;;;;;;7335362;19;162583;-15
2022/08/24 14:27:48;;;;;;;5.13;3.55;;;;;;;;;;7335501;19;154007;-15
2022/08/24 14:30:35;;;;;;;;;;;;;;;;;;7335653;19;153322;-15
2022/08/24 14:33:13;;;;;;;5.80;3.38;;;;;;;;;;7334851;19;161935;-15
2022/08/24 14:36:00;;;;;;;5.88;3.40;;;;;;;;;;7334920;19;162423;-15
2022/08/24 14:38:52;;;;;;;7.38;3.63;;;;;;;;;;7335117;19;154266;-16
2022/08/24 14:41:37;;;;;;;9.43;3.97;;;;;;;;;;7334965;19;153496;-15
2022/08/24 14:44:34;;;;;;;4.00;3.47;;;;;;;;;;7334564;19;162432;-15
2022/08/24 14:47:11;;;;;;;7.20;3.55;;;;;;;;;;7334397;19;162862;-16
2022/08/24 14:49:49;;;;;;;6.95;3.63;;;;;;;;;;7333164;19;154069;-15
2022/08/24 14:52:41;;;;;;;5.22;3.17;;;;;;;;;;7333610;19;153533;-15
2022/08/24 14:55:20;;;;;;;5.70;3.40;;;;;;;;;;7331796;19;161960;-15
2022/08/24 14:58:07;;;;;;;4.18;3.42;;;;;;;;;;7333913;19;162628;-15
2022/08/24 15:01:00;;;;;;;6.00;3.30;;;;;;;;;;7332450;19;154008;-15
2022/08/24 15:03:52;;;;;;;8.60;3.38;;;;;;;;;;7334145;19;153656;-15
2022/08/24 15:06:28;;;;;;;6.78;3.53;;;;;;;;;;7333772;19;161921;-16
2022/08/24 15:09:19;;;;;;;11.82;3.67;;;;;;;;;;7334411;19;162452;-16
2022/08/24 15:11:51;;;;;;;7.88;3.72;;;;;;;;;;7332854;19;154236;-15
2022/08/24 15:14:29;;;;;;;6.95;3.42;;;;;;;;;;7333748;19;153493;-16
2022/08/24 15:17:06;;;;;;;7.45;3.30;;;;;;;;;;7333229;19;161918;-15
2022/08/24 15:19:48;;;;;;;4.38;3.50;;;;;;;;;;7334667;19;162504;-15
2022/08/24 15:22:30;;;;;;;6.35;3.33;;;;;;;;;;7333626;19;153985;-15
2022/08/24 15:25:12;;;;;;;4.72;3.08;;;;;;;;;;7332122;19;153822;-15
2022/08/24 15:27:49;;;;;;;7.45;3.60;;;;;;;;;;7331367;19;161978;-15
2022/08/24 15:30:24;;;;;;;3.95;3.00;;;;;;;;;;7332886;19;162497;-15
2022/08/24 15:33:05;;;;;;;5.70;3.50;;;;;;;;;;7333355;19;154153;-15
2022/08/24 15:35:39;;;;;;;4.28;3.15;;;;;;;;;;7332237;19;153699;-15
2022/08/24 15:38:23;;;;;;;9.15;3.85;;;;;;;;;;7332758;19;161772;-15
2022/08/24 15:41:07;;;;;;;4.78;3.20;;;;;;;;;;7335406;19;162482;-16
2022/08/24 15:43:42;;;;;;;4.97;3.28;;;;;;;;;;7333311;19;154036;-15
2022/08/24 15:46:14;;;;;;;5.03;3.42;;;;;;;;;;7333066;19;153499;-15
2022/08/24 15:48:47;;;;;;;3.72;2.97;;;;;;;;;;7332508;19;161835;-15
2022/08/24 15:51:37;;;;;;;5.15;3.08;;;;;;;;;;7332192;19;162496;-14
2022/08/24 15:54:29;;;;;;;8.18;3.38;;;;;;;;;;7331434;19;153962;-15